Time;durP1;ratioP1;P1;durP2;ratioP2;P2;SDS_P1;SDS_P2;PMS_P1;PMS_P2;Temp;Humidity;BMP_temperature;BMP_pressure;BME280_temperature;BME280_humidity;BME280_pressure;Samples;Min_cycle;Max_cycle;Signal;HPM_P1;HPM_P2
2023/12/01 00:13:49;;;;;;;5.78;4.60;;;;;;;20.21;51.67;98854.66;41542656;28;20065;-76
2023/12/01 00:33:51;;;;;;;5.78;4.50;;;;;;;20.26;51.41;98886.59;41489438;28;20543;-75
2023/12/01 00:53:51;;;;;;;5.53;4.55;;;;;;;20.26;51.61;98900.56;41454190;28;20413;-76
2023/12/01 01:13:52;;;;;;;4.88;4.00;;;;;;;20.21;51.57;98902.78;41552860;28;20048;-76
2023/12/01 01:33:53;;;;;;;5.07;4.25;;;;;;;20.21;51.51;98881.75;41521281;28;20050;-75
2023/12/01 01:53:54;;;;;;;4.43;3.90;;;;;;;20.19;51.30;98886.38;41526130;28;20616;-76
2023/12/01 02:13:54;;;;;;;4.63;4.10;;;;;;;20.19;51.34;98896.03;41521211;28;20046;-76
2023/12/01 02:33:57;;;;;;;4.88;4.22;;;;;;;20.18;51.13;98904.88;41585509;28;20100;-77
2023/12/01 02:53:58;;;;;;;4.32;3.70;;;;;;;20.17;51.21;98911.16;41543868;28;20520;-75
2023/12/01 03:13:59;;;;;;;4.43;3.70;;;;;;;20.21;50.76;98888.84;41535274;28;20077;-75
2023/12/01 03:33:59;;;;;;;4.72;3.97;;;;;;;20.15;50.93;98930.50;41555059;28;20556;-75
2023/12/01 03:54:00;;;;;;;4.47;3.90;;;;;;;20.20;50.58;98910.84;41524292;28;20133;-76
2023/12/01 04:14:00;;;;;;;4.75;3.92;;;;;;;20.17;50.81;98890.94;41558230;28;20845;-75
2023/12/01 04:34:00;;;;;;;5.00;4.30;;;;;;;20.14;50.98;98884.19;41550528;28;20045;-77
2023/12/01 04:54:06;;;;;;;5.00;4.05;;;;;;;20.33;49.22;98871.88;41508072;28;20049;-75
2023/12/01 05:14:10;;;;;;;9.23;4.40;;;;;;;20.47;50.06;98883.69;41531663;28;20046;-76
2023/12/01 05:34:10;;;;;;;7.65;4.95;;;;;;;20.88;49.31;98906.88;41491397;28;20200;-75
2023/12/01 05:54:11;;;;;;;8.50;4.55;;;;;;;21.13;49.78;98900.00;41579831;28;20121;-77
2023/12/01 06:14:11;;;;;;;10.38;5.97;;;;;;;20.67;48.84;98907.19;41526951;28;20982;-76
2023/12/01 06:34:12;;;;;;;16.23;6.30;;;;;;;20.94;48.14;98922.06;41489003;28;20038;-77
2023/12/01 06:54:12;;;;;;;8.88;6.88;;;;;;;21.06;46.44;98915.56;41512769;28;20184;-82
2023/12/01 07:14:13;;;;;;;8.85;6.10;;;;;;;21.14;47.74;98925.34;41590712;28;20041;-76
2023/12/01 07:34:13;;;;;;;7.72;5.47;;;;;;;21.21;47.96;98963.19;41570653;28;20045;-75
2023/12/01 07:54:19;;;;;;;9.40;5.88;;;;;;;21.17;48.04;98940.81;41520566;28;20839;-78
2023/12/01 08:14:19;;;;;;;8.75;5.78;;;;;;;21.16;47.74;98957.56;41491386;28;20374;-78
2023/12/01 08:34:20;;;;;;;9.10;5.75;;;;;;;21.11;47.32;98947.50;41572054;28;20057;-77
2023/12/01 08:54:21;;;;;;;6.95;5.57;;;;;;;21.21;47.51;98970.28;41462018;28;23427;-76
2023/12/01 09:14:22;;;;;;;7.30;4.70;;;;;;;21.18;47.09;98987.22;41551936;28;20080;-80
2023/12/01 09:34:22;;;;;;;6.70;4.75;;;;;;;21.11;47.01;98986.16;41581468;28;20044;-78
2023/12/01 09:54:23;;;;;;;10.00;6.03;;;;;;;20.98;47.85;98952.34;41572280;28;20053;-79
2023/12/01 10:14:23;;;;;;;13.52;6.57;;;;;;;21.16;48.89;98928.63;41572214;28;20039;-79
2023/12/01 10:34:25;;;;;;;9.45;6.43;;;;;;;21.05;48.71;98900.75;41587322;28;20041;-81
2023/12/01 10:54:28;;;;;;;13.88;8.60;;;;;;;21.05;49.71;98889.41;41562172;28;20057;-83
2023/12/01 11:14:31;;;;;;;12.27;9.05;;;;;;;21.05;49.65;98866.53;41629286;28;20049;-80
2023/12/01 11:34:32;;;;;;;11.52;8.85;;;;;;;21.14;49.23;98861.31;41550197;28;20566;-81
2023/12/01 11:54:35;;;;;;;11.73;8.68;;;;;;;21.11;49.07;98865.09;41609026;28;20125;-78
2023/12/01 12:14:42;;;;;;;13.00;8.52;;;;;;;21.12;48.96;98853.59;41513935;28;20400;-77
2023/12/01 12:34:42;;;;;;;25.30;9.52;;;;;;;21.16;48.71;98831.22;41519951;28;20038;-80
2023/12/01 12:54:43;;;;;;;13.32;7.97;;;;;;;21.09;48.67;98822.31;41480941;28;20121;-77
2023/12/01 13:14:43;;;;;;;16.95;8.65;;;;;;;20.98;49.43;98807.59;41465286;28;20026;-81
2023/12/01 13:34:47;;;;;;;12.85;7.80;;;;;;;21.04;49.33;98814.06;41467374;28;20722;-85
2023/12/01 13:54:47;;;;;;;11.98;7.05;;;;;;;21.04;49.30;98832.47;41368876;28;20045;-75
2023/12/01 14:14:47;;;;;;;9.38;6.38;;;;;;;21.01;49.00;98867.84;41326016;28;20502;-74
2023/12/01 14:34:48;;;;;;;12.80;5.70;;;;;;;21.21;49.14;98871.06;41362506;28;20073;-71
2023/12/01 14:54:48;;;;;;;15.32;5.95;;;;;;;21.08;50.10;98883.81;41394233;28;20034;-73
2023/12/01 15:14:49;;;;;;;13.05;5.22;;;;;;;20.98;50.39;98873.38;41319045;28;20046;-70
2023/12/01 15:34:49;;;;;;;9.57;5.40;;;;;;;20.94;49.98;98879.94;41287537;28;20042;-71
2023/12/01 15:54:50;;;;;;;27.55;8.38;;;;;;;20.73;50.55;98841.66;41230391;28;20070;-76
2023/12/01 16:14:50;;;;;;;23.73;7.13;;;;;;;20.68;50.46;98824.66;41287725;28;20041;-76
2023/12/01 16:34:51;;;;;;;33.72;7.32;;;;;;;20.59;50.00;98850.06;41308102;28;20141;-72
2023/12/01 16:54:52;;;;;;;20.33;6.38;;;;;;;20.62;51.80;98813.75;41316532;28;20045;-71
2023/12/01 17:14:52;;;;;;;14.05;6.55;;;;;;;20.67;51.29;98768.59;41272109;28;20571;-72
2023/12/01 17:34:53;;;;;;;13.60;6.03;;;;;;;20.57;51.25;98849.41;41256669;28;20121;-71
2023/12/01 17:54:53;;;;;;;15.75;5.20;;;;;;;20.47;51.81;98804.81;41282820;28;20352;-75
2023/12/01 18:14:54;;;;;;;15.95;5.85;;;;;;;20.79;51.99;98798.13;41202282;28;20506;-75
2023/12/01 18:34:54;;;;;;;14.05;6.72;;;;;;;20.73;53.73;98796.94;41241886;28;20049;-77
2023/12/01 18:54:54;;;;;;;12.43;6.15;;;;;;;20.69;53.13;98797.38;41274426;28;20375;-77
2023/12/01 19:14:55;;;;;;;11.05;6.10;;;;;;;20.73;52.48;98796.94;41306781;28;20060;-76
2023/12/01 19:34:55;;;;;;;10.13;5.80;;;;;;;20.69;52.59;98777.16;41230766;28;20042;-77
2023/12/01 19:54:56;;;;;;;11.05;5.63;;;;;;;20.85;52.88;98780.88;41240724;28;21412;-74
2023/12/01 20:14:57;;;;;;;23.38;5.88;;;;;;;20.78;52.94;98772.81;41302292;28;20539;-75
2023/12/01 20:35:01;;;;;;;12.93;5.55;;;;;;;20.64;53.25;98772.38;41262472;28;20568;-77
2023/12/01 20:55:02;;;;;;;10.10;5.63;;;;;;;20.44;52.43;98755.94;41263356;28;20062;-73
2023/12/01 21:15:03;;;;;;;8.27;4.78;;;;;;;20.42;52.81;98762.34;41339216;28;20073;-72
2023/12/01 21:35:07;;;;;;;7.80;4.82;;;;;;;20.44;52.90;98737.53;41280134;28;20104;-72
2023/12/01 21:55:08;;;;;;;7.10;4.43;;;;;;;20.35;52.86;98748.16;41274615;28;20054;-72
2023/12/01 22:15:09;;;;;;;5.38;4.13;;;;;;;20.30;52.93;98725.78;41314460;28;20052;-71
2023/12/01 22:35:10;;;;;;;4.53;3.45;;;;;;;20.34;52.97;98734.19;41301506;28;20081;-71
2023/12/01 22:55:10;;;;;;;5.10;3.70;;;;;;;20.24;53.22;98694.88;41372360;28;20050;-70
2023/12/01 23:15:10;;;;;;;4.93;3.80;;;;;;;20.29;53.69;98697.03;41401996;28;20068;-71
2023/12/01 23:35:11;;;;;;;4.47;3.50;;;;;;;20.26;53.87;98668.44;41401363;28;20034;-73
2023/12/01 23:55:11;;;;;;;5.00;3.50;;;;;;;20.24;53.92;98649.38;41307254;28;20613;-72
